Terminal Aerodrome Forecast
Issued by NWS Glasgow, MT

Current Version | Previous Version | Text Only | Print | Product List | Glossary On
Versions: 1 2 3 4 5 6 7 8 9 10 11 12
000
FTUS45 KGGW 190500
TAFGGW
TAF
KGGW 190528Z 1906/2006 31010KT P6SM FEW250
     FM191400 31014KT P6SM FEW035
     FM191800 33020G30KT P6SM SCT090
     FM200300 34012KT P6SM SCT090=

USA.gov is the U.S. government's official web portal to all federal, state and local government web resources and services.